createdAt,value
2017-01-22T00:00:17.989Z,1014.65
2017-01-22T00:00:58.478Z,1014.63
2017-01-22T00:01:39.007Z,1014.62
2017-01-22T00:02:19.477Z,1014.63
2017-01-22T00:02:59.974Z,1014.61
2017-01-22T00:03:40.435Z,1014.6
2017-01-22T00:04:20.982Z,1014.59
2017-01-22T00:05:01.466Z,1014.57
2017-01-22T00:05:41.965Z,1014.58
2017-01-22T00:06:22.484Z,1014.59
2017-01-22T00:07:02.998Z,1014.56
2017-01-22T00:07:43.470Z,1014.56
2017-01-22T00:08:24.077Z,1014.58
2017-01-22T00:09:04.578Z,1014.6
2017-01-22T00:09:45.078Z,1014.61
2017-01-22T00:10:25.577Z,1014.57
2017-01-22T00:11:06.124Z,1014.58
2017-01-22T00:11:46.605Z,1014.54
2017-01-22T00:12:27.089Z,1014.52
2017-01-22T00:13:07.605Z,1014.56
2017-01-22T00:13:48.118Z,1014.5
2017-01-22T00:14:28.581Z,1014.5
2017-01-22T00:15:09.086Z,1014.5
2017-01-22T00:15:49.595Z,1014.48
2017-01-22T00:16:30.081Z,1014.45
2017-01-22T00:17:10.573Z,1014.5
2017-01-22T00:17:51.074Z,1014.51
2017-01-22T00:18:31.600Z,1014.48
2017-01-22T00:19:12.059Z,1014.47
2017-01-22T00:19:52.552Z,1014.51
2017-01-22T00:20:33.089Z,1014.48
2017-01-22T00:21:13.551Z,1014.43
2017-01-22T00:21:54.047Z,1014.53
2017-01-22T00:22:34.614Z,1014.52
2017-01-22T00:23:15.100Z,1014.54
2017-01-22T00:23:55.574Z,1014.55
2017-01-22T00:24:36.063Z,1014.53
2017-01-22T00:25:16.556Z,1014.56
2017-01-22T00:25:57.048Z,1014.52
2017-01-22T00:26:37.557Z,1014.54
2017-01-22T00:27:18.063Z,1014.55
2017-01-22T00:27:58.569Z,1014.51
2017-01-22T00:28:39.058Z,1014.52
2017-01-22T00:29:19.559Z,1014.49
2017-01-22T00:30:00.053Z,1014.51
2017-01-22T00:30:40.544Z,1014.49
2017-01-22T00:31:21.037Z,1014.42
2017-01-22T00:32:01.532Z,1014.48
2017-01-22T00:32:42.024Z,1014.47
2017-01-22T00:33:22.531Z,1014.5
2017-01-22T00:34:03.093Z,1014.52
2017-01-22T00:34:43.619Z,1014.5
2017-01-22T00:35:24.124Z,1014.47
2017-01-22T00:36:04.602Z,1014.5
2017-01-22T00:36:45.100Z,1014.45
2017-01-22T00:37:25.603Z,1014.52
2017-01-22T00:38:06.076Z,1014.46
2017-01-22T00:38:46.600Z,1014.45
2017-01-22T00:39:27.085Z,1014.46
2017-01-22T00:40:07.568Z,1014.46
2017-01-22T00:40:48.127Z,1014.51
2017-01-22T00:41:28.611Z,1014.45
2017-01-22T00:42:09.073Z,1014.45
2017-01-22T00:42:49.573Z,1014.47
2017-01-22T00:43:30.103Z,1014.4
2017-01-22T00:44:10.596Z,1014.47
2017-01-22T00:44:51.072Z,1014.41
2017-01-22T00:45:31.581Z,1014.45
2017-01-22T00:46:12.094Z,1014.38
2017-01-22T00:46:52.597Z,1014.41
2017-01-22T00:47:33.085Z,1014.42
2017-01-22T00:48:13.583Z,1014.4
2017-01-22T00:48:54.070Z,1014.42
2017-01-22T00:49:34.585Z,1014.41
2017-01-22T00:50:15.083Z,1014.41
2017-01-22T00:50:55.591Z,1014.43
2017-01-22T00:51:36.367Z,1014.39
2017-01-22T00:52:16.868Z,1014.39
2017-01-22T00:52:57.381Z,1014.38
2017-01-22T00:53:37.908Z,1014.41
2017-01-22T00:54:18.388Z,1014.41
2017-01-22T00:54:58.893Z,1014.41
2017-01-22T00:55:39.402Z,1014.35
2017-01-22T00:56:19.927Z,1014.34
2017-01-22T00:57:00.389Z,1014.35
2017-01-22T00:57:40.872Z,1014.32
2017-01-22T00:58:21.386Z,1014.3
2017-01-22T00:59:01.886Z,1014.35
2017-01-22T00:59:42.399Z,1014.36
2017-01-22T01:00:22.919Z,1014.36
2017-01-22T01:01:03.373Z,1014.36
2017-01-22T01:01:43.865Z,1014.3
2017-01-22T01:02:24.356Z,1014.35
2017-01-22T01:03:04.876Z,1014.31
2017-01-22T01:03:45.333Z,1014.42
2017-01-22T01:04:25.849Z,1014.34
2017-01-22T01:05:06.327Z,1014.4
2017-01-22T01:05:46.831Z,1014.39
2017-01-22T01:06:27.378Z,1014.45
2017-01-22T01:07:07.849Z,1014.46
2017-01-22T01:07:48.352Z,1014.45
2017-01-22T01:08:28.864Z,1014.45
2017-01-22T01:09:09.366Z,1014.43
2017-01-22T01:09:49.899Z,1014.49
2017-01-22T01:10:30.397Z,1014.51
2017-01-22T01:11:10.992Z,1014.5
2017-01-22T01:11:51.502Z,1014.48
2017-01-22T01:12:31.983Z,1014.49
2017-01-22T01:13:12.483Z,1014.47
2017-01-22T01:13:53.003Z,1014.46
2017-01-22T01:14:33.452Z,1014.46
2017-01-22T01:15:13.958Z,1014.48
2017-01-22T01:15:54.454Z,1014.47
2017-01-22T01:16:34.947Z,1014.46
2017-01-22T01:17:15.460Z,1014.48
2017-01-22T01:17:55.935Z,1014.43
2017-01-22T01:18:36.442Z,1014.45
2017-01-22T01:19:16.916Z,1014.44
2017-01-22T01:19:57.440Z,1014.44
2017-01-22T01:20:37.912Z,1014.45
2017-01-22T01:21:18.397Z,1014.43
2017-01-22T01:21:58.918Z,1014.47
2017-01-22T01:22:39.402Z,1014.45
2017-01-22T01:23:19.889Z,1014.46
2017-01-22T01:24:00.408Z,1014.43
2017-01-22T01:24:40.898Z,1014.46
2017-01-22T01:25:21.379Z,1014.39
2017-01-22T01:26:01.911Z,1014.42
2017-01-22T01:26:42.415Z,1014.43
2017-01-22T01:27:22.883Z,1014.39
2017-01-22T01:28:03.399Z,1014.38
2017-01-22T01:28:43.985Z,1014.38
2017-01-22T01:29:24.353Z,1014.4
2017-01-22T01:30:04.853Z,1014.36
2017-01-22T01:30:45.363Z,1014.4
2017-01-22T01:31:25.813Z,1014.39
2017-01-22T01:32:06.343Z,1014.37
2017-01-22T01:32:46.882Z,1014.4
2017-01-22T01:33:27.361Z,1014.38
2017-01-22T01:34:07.902Z,1014.37
2017-01-22T01:34:48.324Z,1014.35
2017-01-22T01:35:28.819Z,1014.37
2017-01-22T01:36:09.293Z,1014.36
2017-01-22T01:36:49.800Z,1014.39
2017-01-22T01:37:30.300Z,1014.41
2017-01-22T01:38:10.851Z,1014.35
2017-01-22T01:38:51.316Z,1014.38
2017-01-22T01:39:31.811Z,1014.36
2017-01-22T01:40:12.311Z,1014.34
2017-01-22T01:40:52.806Z,1014.35
2017-01-22T01:41:33.321Z,1014.33
2017-01-22T01:42:13.814Z,1014.33
2017-01-22T01:42:54.411Z,1014.33
2017-01-22T01:43:34.914Z,1014.34
2017-01-22T01:44:15.355Z,1014.37
2017-01-22T01:44:55.876Z,1014.32
2017-01-22T01:45:36.389Z,1014.29
2017-01-22T01:46:16.881Z,1014.31
2017-01-22T01:46:57.343Z,1014.3
2017-01-22T01:47:37.838Z,1014.29
2017-01-22T01:48:18.350Z,1014.31
2017-01-22T01:48:58.852Z,1014.29
2017-01-22T01:49:39.375Z,1014.29
2017-01-22T01:50:19.866Z,1014.26
2017-01-22T01:51:00.338Z,1014.24
2017-01-22T01:51:40.813Z,1014.29
2017-01-22T01:52:21.300Z,1014.23
2017-01-22T01:53:01.804Z,1014.22
2017-01-22T01:53:42.287Z,1014.25
2017-01-22T01:54:22.796Z,1014.23
2017-01-22T01:55:03.280Z,1014.23
2017-01-22T01:55:43.798Z,1014.24
2017-01-22T01:56:24.335Z,1014.19
2017-01-22T01:57:04.803Z,1014.24
2017-01-22T01:57:45.314Z,1014.21
2017-01-22T01:58:25.821Z,1014.19
2017-01-22T01:59:06.335Z,1014.16
2017-01-22T01:59:46.817Z,1014.14
2017-01-22T02:00:27.326Z,1014.22
2017-01-22T02:01:07.791Z,1014.21
2017-01-22T02:01:48.294Z,1014.19
2017-01-22T02:02:28.850Z,1014.16
2017-01-22T02:03:09.259Z,1014.17
2017-01-22T02:03:49.797Z,1014.16
2017-01-22T02:04:30.285Z,1014.15
2017-01-22T02:05:10.749Z,1014.13
2017-01-22T02:05:51.282Z,1014.19
2017-01-22T02:06:31.746Z,1014.15
2017-01-22T02:07:12.246Z,1014.12
2017-01-22T02:07:52.724Z,1014.12
2017-01-22T02:08:33.227Z,1014.09
2017-01-22T02:09:13.772Z,1014.16
2017-01-22T02:09:54.218Z,1014.16
2017-01-22T02:10:34.731Z,1014.11
2017-01-22T02:11:15.216Z,1014.16
2017-01-22T02:11:55.733Z,1014.09
2017-01-22T02:12:36.197Z,1014.1
2017-01-22T02:13:16.723Z,1014.06
2017-01-22T02:13:57.179Z,1014.09
2017-01-22T02:14:37.658Z,1014.06
2017-01-22T02:15:18.178Z,1014.07
2017-01-22T02:15:58.666Z,1014.09
2017-01-22T02:16:39.407Z,1014.07
2017-01-22T02:17:19.894Z,1014.05
2017-01-22T02:18:00.336Z,1014.07
2017-01-22T02:18:40.855Z,1014
2017-01-22T02:19:21.346Z,1014.05
2017-01-22T02:20:01.865Z,1014.08
2017-01-22T02:20:42.349Z,1014.09
2017-01-22T02:21:22.838Z,1014.11
2017-01-22T02:22:03.348Z,1014.08
2017-01-22T02:22:43.836Z,1014.04
2017-01-22T02:23:24.329Z,1014.06
2017-01-22T02:24:04.896Z,1014.07
2017-01-22T02:24:45.298Z,1014.08
2017-01-22T02:25:25.794Z,1014.08
2017-01-22T02:26:06.333Z,1014.07
2017-01-22T02:26:46.815Z,1014.03
2017-01-22T02:27:27.294Z,1014.07
2017-01-22T02:28:07.844Z,1014.02
2017-01-22T02:28:48.312Z,1014.04
2017-01-22T02:29:28.758Z,1014.09
2017-01-22T02:30:09.301Z,1014.04
2017-01-22T02:30:49.761Z,1014.08
2017-01-22T02:31:30.245Z,1014.04
2017-01-22T02:32:10.736Z,1014.05
2017-01-22T02:32:51.238Z,1014.07
2017-01-22T02:33:31.745Z,1014.02
2017-01-22T02:34:12.211Z,1014.02
2017-01-22T02:34:52.705Z,1014.02
2017-01-22T02:35:33.208Z,1013.98
2017-01-22T02:36:13.702Z,1014.09
2017-01-22T02:36:54.211Z,1014.03
2017-01-22T02:37:34.716Z,1014.02
2017-01-22T02:38:15.209Z,1014.01
2017-01-22T02:38:55.679Z,1014.04
2017-01-22T02:39:36.178Z,1014.01
2017-01-22T02:40:16.679Z,1013.98
2017-01-22T02:40:57.174Z,1014.02
2017-01-22T02:41:37.640Z,1013.96
2017-01-22T02:42:18.158Z,1014
2017-01-22T02:42:58.670Z,1013.97
2017-01-22T02:43:39.211Z,1013.93
2017-01-22T02:44:19.681Z,1014.01
2017-01-22T02:45:00.299Z,1013.99
2017-01-22T02:45:40.813Z,1014.02
2017-01-22T02:46:21.291Z,1013.97
2017-01-22T02:47:01.810Z,1013.94
2017-01-22T02:47:42.264Z,1013.94
2017-01-22T02:48:22.753Z,1013.94
2017-01-22T02:49:03.268Z,1013.88
2017-01-22T02:49:43.722Z,1013.89
2017-01-22T02:50:24.249Z,1013.89
2017-01-22T02:51:04.720Z,1013.85
2017-01-22T02:51:45.222Z,1013.89
2017-01-22T02:52:25.737Z,1013.88
2017-01-22T02:53:06.271Z,1013.88
2017-01-22T02:53:46.735Z,1013.84
2017-01-22T02:54:27.244Z,1013.88
2017-01-22T02:55:07.751Z,1013.86
2017-01-22T02:55:48.258Z,1013.87
2017-01-22T02:56:28.727Z,1013.83
2017-01-22T02:57:09.236Z,1013.82
2017-01-22T02:57:49.719Z,1013.83
2017-01-22T02:58:30.243Z,1013.88
2017-01-22T02:59:10.748Z,1013.88
2017-01-22T02:59:51.249Z,1013.88
2017-01-22T03:00:31.750Z,1013.88
2017-01-22T03:01:12.264Z,1013.81
2017-01-22T03:01:52.761Z,1013.85
2017-01-22T03:02:33.270Z,1013.88
2017-01-22T03:03:13.778Z,1013.87
2017-01-22T03:03:54.249Z,1013.89
2017-01-22T03:04:34.745Z,1013.89
2017-01-22T03:05:15.243Z,1013.93
2017-01-22T03:05:55.720Z,1013.85
2017-01-22T03:06:36.230Z,1013.92
2017-01-22T03:07:16.752Z,1013.91
2017-01-22T03:07:57.228Z,1013.9
2017-01-22T03:08:37.775Z,1013.92
2017-01-22T03:09:18.295Z,1013.98
2017-01-22T03:09:58.792Z,1013.89
2017-01-22T03:10:39.273Z,1013.97
2017-01-22T03:11:19.781Z,1013.9
2017-01-22T03:12:00.286Z,1013.92
2017-01-22T03:12:40.776Z,1013.95
2017-01-22T03:13:21.257Z,1013.94
2017-01-22T03:14:01.764Z,1013.94
2017-01-22T03:16:30.257Z,1013.96
2017-01-22T03:17:10.809Z,1013.98
2017-01-22T03:17:51.249Z,1013.98
2017-01-22T03:18:31.763Z,1013.93
2017-01-22T03:19:12.271Z,1013.92
2017-01-22T03:19:52.749Z,1013.96
2017-01-22T03:20:33.281Z,1013.94
2017-01-22T03:21:13.724Z,1013.93
2017-01-22T03:21:54.243Z,1013.91
2017-01-22T03:22:34.770Z,1013.95
2017-01-22T03:23:15.264Z,1013.94
2017-01-22T03:23:55.735Z,1013.97
2017-01-22T03:24:36.239Z,1013.95
2017-01-22T03:25:16.765Z,1013.97
2017-01-22T03:25:57.236Z,1013.96
2017-01-22T03:26:37.799Z,1013.96
2017-01-22T03:27:18.254Z,1013.94
2017-01-22T03:27:58.753Z,1013.89
2017-01-22T03:28:39.262Z,1013.91
2017-01-22T03:29:19.772Z,1013.9
2017-01-22T03:30:00.240Z,1013.91
2017-01-22T03:30:40.711Z,1013.89
2017-01-22T03:31:21.192Z,1013.86
2017-01-22T03:32:01.684Z,1013.84
2017-01-22T03:32:42.149Z,1013.87
2017-01-22T03:33:22.662Z,1013.92
2017-01-22T03:34:03.170Z,1013.92
2017-01-22T03:34:43.646Z,1013.89
2017-01-22T03:35:24.151Z,1013.91
2017-01-22T03:36:04.624Z,1013.91
2017-01-22T03:36:45.107Z,1013.93
2017-01-22T03:37:25.676Z,1013.91
2017-01-22T03:38:06.168Z,1013.9
2017-01-22T03:38:46.637Z,1013.97
2017-01-22T03:39:27.159Z,1013.9
2017-01-22T03:40:07.758Z,1013.87
2017-01-22T03:40:48.289Z,1013.9
2017-01-22T03:41:28.721Z,1013.9
2017-01-22T03:42:09.243Z,1013.94
2017-01-22T03:42:49.708Z,1013.89
2017-01-22T03:43:30.191Z,1013.91
2017-01-22T03:44:10.723Z,1013.86
2017-01-22T03:44:51.193Z,1013.9
2017-01-22T03:45:31.725Z,1013.85
2017-01-22T03:46:12.168Z,1013.88
2017-01-22T03:46:52.686Z,1013.88
2017-01-22T03:47:33.126Z,1013.88
2017-01-22T03:48:13.717Z,1013.84
2017-01-22T03:48:54.159Z,1013.83
2017-01-22T03:49:34.628Z,1013.83
2017-01-22T03:50:15.114Z,1013.88
2017-01-22T03:50:55.614Z,1013.85
2017-01-22T03:51:36.114Z,1013.87
2017-01-22T03:52:16.613Z,1013.9
2017-01-22T03:52:57.094Z,1013.88
2017-01-22T03:53:37.549Z,1013.88
2017-01-22T03:54:18.064Z,1013.87
2017-01-22T03:54:58.530Z,1013.92
2017-01-22T03:55:39.051Z,1013.89
2017-01-22T03:56:19.518Z,1013.86
2017-01-22T03:57:00.063Z,1013.91
2017-01-22T03:57:40.705Z,1013.89
2017-01-22T03:58:21.003Z,1013.87
2017-01-22T03:59:01.650Z,1013.88
2017-01-22T03:59:42.127Z,1013.88
2017-01-22T04:00:22.636Z,1013.89
2017-01-22T04:01:03.112Z,1013.85
2017-01-22T04:01:43.570Z,1013.83
2017-01-22T04:02:26.571Z,1013.86
2017-01-22T04:03:06.943Z,1013.8
2017-01-22T04:03:47.592Z,1013.82
2017-01-22T04:04:28.187Z,1013.8
2017-01-22T04:05:08.704Z,1013.82
2017-01-22T04:05:49.181Z,1013.81
2017-01-22T04:06:29.841Z,1013.83
2017-01-22T04:07:10.424Z,1013.81
2017-01-22T04:07:51.888Z,1013.79
2017-01-22T04:08:33.028Z,1013.82
2017-01-22T04:09:14.244Z,1013.8
2017-01-22T04:11:35.394Z,1013.79
2017-01-22T04:12:15.865Z,1013.81
2017-01-22T04:12:56.341Z,1013.76
2017-01-22T04:13:36.854Z,1013.79
2017-01-22T04:14:17.383Z,1013.77
2017-01-22T04:14:57.889Z,1013.79
2017-01-22T04:15:38.371Z,1013.79
2017-01-22T04:16:18.862Z,1013.77
2017-01-22T04:16:59.356Z,1013.77
2017-01-22T04:17:39.797Z,1013.76
2017-01-22T04:18:20.274Z,1013.71
2017-01-22T04:19:00.771Z,1013.73
2017-01-22T04:19:41.327Z,1013.71
2017-01-22T04:20:21.790Z,1013.71
2017-01-22T04:21:02.235Z,1013.75
2017-01-22T04:21:42.718Z,1013.71
2017-01-22T04:22:23.261Z,1013.75
2017-01-22T04:23:03.758Z,1013.71
2017-01-22T04:23:44.234Z,1013.76
2017-01-22T04:24:24.734Z,1013.71
2017-01-22T04:25:05.222Z,1013.69
2017-01-22T04:25:45.713Z,1013.65
2017-01-22T04:26:26.227Z,1013.59
2017-01-22T04:27:06.708Z,1013.64
2017-01-22T04:27:47.232Z,1013.6
2017-01-22T04:28:27.723Z,1013.62
2017-01-22T04:29:08.237Z,1013.61
2017-01-22T04:29:48.692Z,1013.56
2017-01-22T04:30:29.175Z,1013.57
2017-01-22T04:31:09.661Z,1013.56
2017-01-22T04:31:50.158Z,1013.51
2017-01-22T04:32:30.640Z,1013.51
2017-01-22T04:33:11.183Z,1013.53
2017-01-22T04:33:51.653Z,1013.46
2017-01-22T04:34:32.126Z,1013.48
2017-01-22T04:35:12.619Z,1013.48
2017-01-22T04:35:53.129Z,1013.51
2017-01-22T04:36:33.617Z,1013.51
2017-01-22T04:37:14.129Z,1013.49
2017-01-22T04:37:54.631Z,1013.49
2017-01-22T04:38:35.162Z,1013.48
2017-01-22T04:39:15.636Z,1013.48
2017-01-22T04:39:56.135Z,1013.5
2017-01-22T04:40:36.647Z,1013.44
2017-01-22T04:41:17.167Z,1013.42
2017-01-22T04:41:57.638Z,1013.43
2017-01-22T04:42:38.165Z,1013.46
2017-01-22T04:43:18.653Z,1013.42
2017-01-22T04:43:59.177Z,1013.42
2017-01-22T04:44:39.645Z,1013.42
2017-01-22T04:45:20.145Z,1013.37
2017-01-22T04:46:00.651Z,1013.39
2017-01-22T04:46:41.146Z,1013.37
2017-01-22T04:47:21.638Z,1013.3
2017-01-22T04:48:02.084Z,1013.36
2017-01-22T04:48:42.584Z,1013.36
2017-01-22T04:49:23.078Z,1013.35
2017-01-22T04:50:03.582Z,1013.37
2017-01-22T04:50:44.090Z,1013.35
2017-01-22T04:51:24.594Z,1013.44
2017-01-22T04:52:05.078Z,1013.38
2017-01-22T04:52:45.576Z,1013.37
2017-01-22T04:53:26.064Z,1013.34
2017-01-22T04:54:06.546Z,1013.35
2017-01-22T04:54:47.127Z,1013.33
2017-01-22T04:55:27.560Z,1013.31
2017-01-22T04:56:08.061Z,1013.37
2017-01-22T04:56:48.570Z,1013.35
2017-01-22T04:57:29.077Z,1013.41
2017-01-22T04:58:09.520Z,1013.33
2017-01-22T04:58:50.013Z,1013.36
2017-01-22T04:59:30.489Z,1013.34
2017-01-22T05:00:10.984Z,1013.35
2017-01-22T05:00:51.483Z,1013.37
2017-01-22T05:01:31.945Z,1013.32
2017-01-22T05:02:12.436Z,1013.34
2017-01-22T05:02:52.934Z,1013.3
2017-01-22T05:03:33.430Z,1013.31
2017-01-22T05:04:13.915Z,1013.29
2017-01-22T05:04:54.406Z,1013.27
2017-01-22T05:05:34.905Z,1013.26
2017-01-22T05:06:15.446Z,1013.28
2017-01-22T05:06:55.907Z,1013.24
2017-01-22T05:07:36.439Z,1013.28
2017-01-22T05:08:16.908Z,1013.3
2017-01-22T05:08:57.431Z,1013.24
2017-01-22T05:09:37.890Z,1013.24
2017-01-22T05:10:18.369Z,1013.23
2017-01-22T05:10:58.868Z,1013.25
2017-01-22T05:11:39.338Z,1013.23
2017-01-22T05:12:19.829Z,1013.26
2017-01-22T05:13:00.323Z,1013.28
2017-01-22T05:13:40.827Z,1013.3
2017-01-22T05:14:21.355Z,1013.28
2017-01-22T05:15:01.843Z,1013.25
2017-01-22T05:15:42.354Z,1013.3
2017-01-22T05:16:22.806Z,1013.29
2017-01-22T05:17:03.284Z,1013.3
2017-01-22T05:17:43.774Z,1013.28
2017-01-22T05:18:24.261Z,1013.24
2017-01-22T05:19:04.770Z,1013.3
2017-01-22T05:19:45.273Z,1013.28
2017-01-22T05:20:25.744Z,1013.29
2017-01-22T05:21:06.268Z,1013.32
2017-01-22T05:21:46.734Z,1013.3
2017-01-22T05:22:27.229Z,1013.31
2017-01-22T05:23:07.737Z,1013.27
2017-01-22T05:23:48.220Z,1013.29
2017-01-22T05:24:28.714Z,1013.28
2017-01-22T05:25:09.206Z,1013.23
2017-01-22T05:25:49.697Z,1013.25
2017-01-22T05:26:30.185Z,1013.22
2017-01-22T05:27:10.653Z,1013.25
2017-01-22T05:27:51.123Z,1013.25
2017-01-22T05:28:31.614Z,1013.18
2017-01-22T05:29:12.130Z,1013.19
2017-01-22T05:29:52.653Z,1013.2
2017-01-22T05:30:33.122Z,1013.18
2017-01-22T05:31:13.657Z,1013.18
2017-01-22T05:31:54.123Z,1013.19
2017-01-22T05:32:34.607Z,1013.2
2017-01-22T05:33:15.121Z,1013.2
2017-01-22T05:33:55.572Z,1013.2
2017-01-22T05:34:36.058Z,1013.18
2017-01-22T05:35:16.589Z,1013.22
2017-01-22T05:35:57.074Z,1013.23
2017-01-22T05:36:37.570Z,1013.26
2017-01-22T05:37:18.091Z,1013.24
2017-01-22T05:37:58.523Z,1013.27
2017-01-22T05:38:39.030Z,1013.23
2017-01-22T05:39:19.524Z,1013.23
2017-01-22T05:40:00.006Z,1013.32
2017-01-22T05:40:40.490Z,1013.27
2017-01-22T05:41:20.973Z,1013.3
2017-01-22T05:42:01.510Z,1013.25
2017-01-22T05:42:41.982Z,1013.3
2017-01-22T05:43:22.446Z,1013.27
2017-01-22T05:44:02.934Z,1013.3
2017-01-22T05:44:43.476Z,1013.29
2017-01-22T05:45:23.951Z,1013.3
2017-01-22T05:46:04.451Z,1013.31
2017-01-22T05:46:44.913Z,1013.32
2017-01-22T05:47:25.446Z,1013.33
2017-01-22T05:48:05.911Z,1013.34
2017-01-22T05:48:46.401Z,1013.35
2017-01-22T05:49:26.907Z,1013.33
2017-01-22T05:50:07.390Z,1013.32
2017-01-22T05:50:47.914Z,1013.35
2017-01-22T05:51:28.375Z,1013.35
2017-01-22T05:52:09.040Z,1013.36
2017-01-22T05:52:49.359Z,1013.33
2017-01-22T05:53:29.881Z,1013.36
2017-01-22T05:54:10.356Z,1013.34
2017-01-22T05:54:50.892Z,1013.34
2017-01-22T05:55:31.366Z,1013.4
2017-01-22T05:56:11.831Z,1013.37
2017-01-22T05:56:52.333Z,1013.38
2017-01-22T05:57:32.820Z,1013.32
2017-01-22T05:58:13.335Z,1013.34
2017-01-22T05:58:53.845Z,1013.34
2017-01-22T05:59:34.362Z,1013.33
2017-01-22T06:00:14.874Z,1013.36
2017-01-22T06:00:55.386Z,1013.34
2017-01-22T06:01:35.865Z,1013.38
2017-01-22T06:02:16.346Z,1013.4
2017-01-22T06:02:56.949Z,1013.35
2017-01-22T06:03:37.366Z,1013.32
2017-01-22T06:04:17.853Z,1013.37
2017-01-22T06:04:58.326Z,1013.33
2017-01-22T06:05:38.860Z,1013.37
2017-01-22T06:06:19.401Z,1013.33
2017-01-22T06:06:59.840Z,1013.34
2017-01-22T06:07:40.335Z,1013.32
2017-01-22T06:08:20.869Z,1013.34
2017-01-22T06:09:01.382Z,1013.42
2017-01-22T06:09:41.866Z,1013.33
2017-01-22T06:10:22.321Z,1013.39
2017-01-22T06:11:02.794Z,1013.34
2017-01-22T06:11:43.250Z,1013.34
2017-01-22T06:12:23.740Z,1013.35
2017-01-22T06:13:04.254Z,1013.33
2017-01-22T06:13:44.717Z,1013.38
2017-01-22T06:14:25.221Z,1013.35
2017-01-22T06:15:05.722Z,1013.37
2017-01-22T06:15:46.187Z,1013.41
2017-01-22T06:16:26.677Z,1013.36
2017-01-22T06:17:07.191Z,1013.37
2017-01-22T06:17:47.660Z,1013.37
2017-01-22T06:18:28.138Z,1013.35
2017-01-22T06:19:08.668Z,1013.39
2017-01-22T06:19:49.156Z,1013.41
2017-01-22T06:20:29.653Z,1013.4
2017-01-22T06:21:10.133Z,1013.42
2017-01-22T06:21:50.632Z,1013.4
2017-01-22T06:22:31.111Z,1013.41
2017-01-22T06:23:11.606Z,1013.37
2017-01-22T06:23:52.104Z,1013.37
2017-01-22T06:24:32.579Z,1013.38
2017-01-22T06:25:13.048Z,1013.35
2017-01-22T06:25:53.563Z,1013.36
2017-01-22T06:26:34.063Z,1013.33
2017-01-22T06:27:14.557Z,1013.34
2017-01-22T06:27:55.142Z,1013.33
2017-01-22T06:28:35.665Z,1013.36
2017-01-22T06:29:16.108Z,1013.38
2017-01-22T06:29:56.574Z,1013.38
2017-01-22T06:30:37.051Z,1013.41
2017-01-22T06:31:17.555Z,1013.43
2017-01-22T06:31:58.023Z,1013.41
2017-01-22T06:32:38.496Z,1013.4
2017-01-22T06:33:18.980Z,1013.49
2017-01-22T06:33:59.490Z,1013.48
2017-01-22T06:34:40.010Z,1013.45
2017-01-22T06:35:20.484Z,1013.52
2017-01-22T06:36:01.004Z,1013.54
2017-01-22T06:36:41.493Z,1013.46
2017-01-22T06:37:21.934Z,1013.5
2017-01-22T06:38:02.405Z,1013.49
2017-01-22T06:38:42.867Z,1013.42
2017-01-22T06:39:23.398Z,1013.42
2017-01-22T06:40:03.860Z,1013.4
2017-01-22T06:40:44.453Z,1013.45
2017-01-22T06:41:24.956Z,1013.43
2017-01-22T06:42:05.395Z,1013.4
2017-01-22T06:42:45.903Z,1013.43
2017-01-22T06:43:26.352Z,1013.44
2017-01-22T06:44:06.838Z,1013.4
2017-01-22T06:44:47.365Z,1013.43
2017-01-22T06:45:27.838Z,1013.41
2017-01-22T06:46:08.300Z,1013.34
2017-01-22T06:46:48.796Z,1013.42
2017-01-22T06:47:29.274Z,1013.38
2017-01-22T06:48:09.736Z,1013.39
2017-01-22T06:48:50.221Z,1013.35
2017-01-22T06:49:30.713Z,1013.31
2017-01-22T06:50:11.186Z,1013.34
2017-01-22T06:50:51.701Z,1013.35
2017-01-22T06:51:32.166Z,1013.39
2017-01-22T06:52:12.663Z,1013.33
2017-01-22T06:52:53.100Z,1013.34
2017-01-22T06:53:33.644Z,1013.37
2017-01-22T06:54:14.183Z,1013.39
2017-01-22T06:54:54.614Z,1013.39
2017-01-22T06:55:35.097Z,1013.33
2017-01-22T06:56:15.605Z,1013.35
2017-01-22T06:56:56.052Z,1013.43
2017-01-22T06:57:36.666Z,1013.38
2017-01-22T06:58:17.100Z,1013.36
2017-01-22T06:58:57.611Z,1013.37
2017-01-22T06:59:38.083Z,1013.33
2017-01-22T07:00:18.530Z,1013.31
2017-01-22T07:00:59.024Z,1013.34
2017-01-22T07:01:39.461Z,1013.31
2017-01-22T07:02:19.972Z,1013.3
2017-01-22T07:03:00.477Z,1013.29
2017-01-22T07:03:41.003Z,1013.31
2017-01-22T07:04:21.482Z,1013.26
2017-01-22T07:05:01.931Z,1013.26
2017-01-22T07:05:42.443Z,1013.29
2017-01-22T07:06:22.918Z,1013.3
2017-01-22T07:07:03.394Z,1013.3
2017-01-22T07:07:43.905Z,1013.28
2017-01-22T07:08:24.397Z,1013.3
2017-01-22T07:09:04.869Z,1013.34
2017-01-22T07:09:45.409Z,1013.32
2017-01-22T07:10:25.869Z,1013.31
2017-01-22T07:11:06.364Z,1013.31
2017-01-22T07:11:46.835Z,1013.35
2017-01-22T07:12:27.291Z,1013.34
2017-01-22T07:13:07.815Z,1013.36
2017-01-22T07:13:48.259Z,1013.32
2017-01-22T07:14:28.790Z,1013.34
2017-01-22T07:15:09.297Z,1013.31
2017-01-22T07:15:49.765Z,1013.29
2017-01-22T07:16:30.239Z,1013.33
2017-01-22T07:17:10.853Z,1013.3
2017-01-22T07:17:51.373Z,1013.31
2017-01-22T07:18:31.876Z,1013.3
2017-01-22T07:19:12.330Z,1013.26
2017-01-22T07:19:52.886Z,1013.28
2017-01-22T07:20:33.300Z,1013.32
2017-01-22T07:21:13.800Z,1013.28
2017-01-22T07:21:54.291Z,1013.26
2017-01-22T07:22:34.828Z,1013.25
2017-01-22T07:23:15.308Z,1013.22
2017-01-22T07:23:55.800Z,1013.22
2017-01-22T07:24:36.252Z,1013.2
2017-01-22T07:25:16.761Z,1013.2
2017-01-22T07:25:57.276Z,1013.2
2017-01-22T07:26:37.776Z,1013.16
2017-01-22T07:27:18.203Z,1013.17
2017-01-22T07:27:58.734Z,1013.18
2017-01-22T07:28:39.204Z,1013.17
2017-01-22T07:29:19.697Z,1013.15
2017-01-22T07:30:00.166Z,1013.14
2017-01-22T07:30:40.676Z,1013.09
2017-01-22T07:31:21.147Z,1013.12
2017-01-22T07:32:01.628Z,1013.09
2017-01-22T07:32:42.119Z,1013.14
2017-01-22T07:33:22.686Z,1013.1
2017-01-22T07:34:03.075Z,1013.15
2017-01-22T07:34:43.590Z,1013.15
2017-01-22T07:35:24.047Z,1013.14
2017-01-22T07:36:04.558Z,1013.21
2017-01-22T07:36:45.116Z,1013.21
2017-01-22T07:37:25.535Z,1013.24
2017-01-22T07:38:06.037Z,1013.2
2017-01-22T07:38:46.499Z,1013.23
2017-01-22T07:39:27.003Z,1013.25
2017-01-22T07:40:07.467Z,1013.21
2017-01-22T07:40:47.970Z,1013.21
2017-01-22T07:41:28.440Z,1013.23
2017-01-22T07:42:08.953Z,1013.25
2017-01-22T07:42:49.406Z,1013.25
2017-01-22T07:43:29.902Z,1013.22
2017-01-22T07:44:10.398Z,1013.23
2017-01-22T07:44:50.865Z,1013.25
2017-01-22T07:45:31.348Z,1013.27
2017-01-22T07:46:11.829Z,1013.3
2017-01-22T07:46:52.309Z,1013.28
2017-01-22T07:47:32.799Z,1013.31
2017-01-22T07:48:13.305Z,1013.3
2017-01-22T07:48:53.773Z,1013.35
2017-01-22T07:49:34.274Z,1013.35
2017-01-22T07:50:14.738Z,1013.35
2017-01-22T07:50:55.231Z,1013.37
2017-01-22T07:51:35.730Z,1013.33
2017-01-22T07:52:16.216Z,1013.37
2017-01-22T07:52:56.705Z,1013.36
2017-01-22T07:53:37.191Z,1013.37
2017-01-22T07:54:17.664Z,1013.32
2017-01-22T07:54:58.160Z,1013.35
2017-01-22T07:55:38.631Z,1013.33
2017-01-22T07:56:19.150Z,1013.33
2017-01-22T07:56:59.664Z,1013.26
2017-01-22T07:57:40.139Z,1013.32
2017-01-22T07:58:20.591Z,1013.3
2017-01-22T07:59:01.104Z,1013.28
2017-01-22T07:59:41.593Z,1013.22
2017-01-22T08:00:22.091Z,1013.27
2017-01-22T08:01:02.565Z,1013.29
2017-01-22T08:01:43.111Z,1013.32
2017-01-22T08:02:23.626Z,1013.36
2017-01-22T08:03:04.129Z,1013.33
2017-01-22T08:03:44.652Z,1013.34
2017-01-22T08:04:25.124Z,1013.28
2017-01-22T08:05:05.651Z,1013.31
2017-01-22T08:05:46.139Z,1013.31
2017-01-22T08:06:26.624Z,1013.3
2017-01-22T08:07:07.139Z,1013.3
2017-01-22T08:07:47.625Z,1013.3
2017-01-22T08:08:28.143Z,1013.26
2017-01-22T08:09:08.651Z,1013.24
2017-01-22T08:09:49.161Z,1013.28
2017-01-22T08:10:29.662Z,1013.2
2017-01-22T08:11:10.169Z,1013.22
2017-01-22T08:11:50.699Z,1013.26
2017-01-22T08:12:31.236Z,1013.28
2017-01-22T08:13:11.738Z,1013.33
2017-01-22T08:13:52.232Z,1013.3
2017-01-22T08:14:32.737Z,1013.34
2017-01-22T08:15:13.247Z,1013.36